Time;durP1;ratioP1;P1;durP2;ratioP2;P2;SDS_P1;SDS_P2;PMS_P1;PMS_P2;Temp;Humidity;BMP_temperature;BMP_pressure;BME280_temperature;BME280_humidity;BME280_pressure;Samples;Min_cycle;Max_cycle;Signal;HPM_P1;HPM_P2
2021/01/15 00:01:27;;;;;;;38.20;17.27;;;;;;;-2.87;73.62;98503.42;119866;1153;104559;-72
2021/01/15 00:03:53;;;;;;;44.20;18.60;;;;;;;-2.89;73.56;98501.73;119855;1152;104599;-72
2021/01/15 00:06:24;;;;;;;39.47;18.80;;;;;;;-2.91;74.41;98488.78;119808;1151;104410;-73
2021/01/15 00:08:53;;;;;;;42.87;17.93;;;;;;;-2.90;73.86;98492.22;119933;1151;104442;-72
2021/01/15 00:11:31;;;;;;;39.70;16.77;;;;;;;-2.89;73.76;98493.92;120040;1151;104365;-72
2021/01/15 00:14:02;;;;;;;38.63;19.53;;;;;;;-2.91;73.76;98493.98;120005;1152;104550;-73
2021/01/15 00:16:32;;;;;;;39.47;18.53;;;;;;;-2.92;74.28;98501.81;119879;1151;104543;-72
2021/01/15 00:19:01;;;;;;;41.80;19.40;;;;;;;-2.91;74.21;98498.32;119911;1151;104465;-73
2021/01/15 00:21:33;;;;;;;43.90;21.43;;;;;;;-2.93;73.59;98495.77;121844;1151;102380;-73
2021/01/15 00:24:06;;;;;;;39.35;18.65;;;;;;;-2.93;74.06;98492.30;120806;1151;104447;-73
2021/01/15 00:26:34;;;;;;;42.40;19.33;;;;;;;-2.96;73.85;98495.86;119993;1152;104346;-72
2021/01/15 00:29:03;;;;;;;43.03;18.90;;;;;;;-3.02;73.68;98496.02;119892;1153;104426;-74
2021/01/15 00:31:41;;;;;;;39.77;17.53;;;;;;;-3.05;73.88;98501.30;119889;1153;104394;-73
2021/01/15 00:34:13;;;;;;;39.63;18.00;;;;;;;-3.10;73.18;98508.37;120058;1153;104383;-73
2021/01/15 00:37:03;;;;;;;40.13;18.97;;;;;;;-3.12;73.19;98512.75;119934;1153;104558;-72
2021/01/15 00:39:30;;;;;;;39.57;17.90;;;;;;;-3.16;73.35;98520.64;119919;1153;104367;-73
2021/01/15 00:41:57;;;;;;;41.67;20.27;;;;;;;-3.14;74.28;98531.02;119829;1152;104514;-72
2021/01/15 00:44:25;;;;;;;36.83;18.20;;;;;;;-3.12;73.43;98526.64;120708;1152;104449;-73
2021/01/15 00:46:55;;;;;;;38.27;17.77;;;;;;;-3.09;74.51;98529.16;120021;1153;104295;-73
2021/01/15 00:49:26;;;;;;;39.33;20.03;;;;;;;-3.07;74.26;98537.78;120058;1153;104414;-74
2021/01/15 00:51:57;;;;;;;40.97;19.30;;;;;;;-3.06;74.37;98542.09;119983;1154;104417;-72
2021/01/15 00:54:24;;;;;;;39.27;17.37;;;;;;;-3.07;73.34;98535.18;119940;1152;104527;-72
2021/01/15 00:57:00;;;;;;;37.90;18.53;;;;;;;-3.05;73.65;98545.53;120061;1151;104483;-74
2021/01/15 00:59:28;;;;;;;36.07;17.37;;;;;;;-3.07;74.15;98545.59;119930;1153;104473;-72
2021/01/15 01:01:55;;;;;;;38.93;18.53;;;;;;;-3.16;74.23;98544.05;120023;1153;104431;-72
2021/01/15 01:04:23;;;;;;;40.47;18.47;;;;;;;-3.21;73.75;98545.91;120089;1151;104348;-73
2021/01/15 01:06:50;;;;;;;40.17;19.27;;;;;;;-3.24;74.23;98545.98;119825;1151;104493;-73
2021/01/15 01:09:19;;;;;;;40.25;18.35;;;;;;;-3.31;73.26;98539.25;121479;1151;104423;-73
2021/01/15 01:11:46;;;;;;;36.93;16.93;;;;;;;-3.34;73.39;98547.97;120798;1151;104468;-72
2021/01/15 01:14:12;;;;;;;36.97;16.03;;;;;;;-3.32;73.78;98546.19;119990;1153;104446;-74
2021/01/15 01:16:39;;;;;;;33.23;14.77;;;;;;;-3.33;73.84;98554.05;119975;1153;104484;-72
2021/01/15 01:19:07;;;;;;;32.30;15.50;;;;;;;-3.34;74.25;98555.77;119879;1153;104353;-72
2021/01/15 01:21:33;;;;;;;34.10;13.53;;;;;;;-3.31;74.07;98553.09;119807;1153;104382;-73
2021/01/15 01:24:01;;;;;;;30.40;13.47;;;;;;;-3.30;74.02;98557.41;121098;1153;104455;-73
2021/01/15 01:26:31;;;;;;;32.27;15.00;;;;;;;-3.33;73.07;98560.08;120107;1151;104420;-72
2021/01/15 01:28:58;;;;;;;29.87;13.60;;;;;;;-3.37;73.28;98561.05;119934;1153;104349;-72
2021/01/15 01:31:26;;;;;;;28.77;12.87;;;;;;;-3.41;73.58;98551.60;119848;1153;104454;-70
2021/01/15 01:33:55;;;;;;;34.13;13.70;;;;;;;-3.41;73.85;98556.80;119853;1152;104487;-72
2021/01/15 01:36:21;;;;;;;29.87;12.93;;;;;;;-3.40;74.09;98560.28;120302;1153;104375;-71
2021/01/15 01:38:49;;;;;;;32.87;13.80;;;;;;;-3.40;73.20;98560.28;119846;1153;104452;-72
2021/01/15 01:41:16;;;;;;;33.87;14.20;;;;;;;-3.38;74.15;98561.94;120002;1153;104348;-72
2021/01/15 01:43:43;;;;;;;32.87;15.70;;;;;;;-3.35;73.90;98563.62;119910;1153;104613;-72
2021/01/15 01:46:10;;;;;;;29.25;12.63;;;;;;;-3.33;74.02;98554.05;119893;1152;104447;-71
2021/01/15 01:48:40;;;;;;;30.50;13.60;;;;;;;-3.33;73.92;98554.88;120219;1153;104442;-74
2021/01/15 01:51:13;;;;;;;29.03;13.77;;;;;;;-3.37;73.22;98568.01;119965;1153;104452;-75
2021/01/15 01:53:41;;;;;;;29.60;12.97;;;;;;;-3.42;73.53;98569.86;119878;1153;104352;-74
2021/01/15 01:56:12;;;;;;;30.40;13.95;;;;;;;-3.45;73.66;98574.24;120034;1152;104338;-76
2021/01/15 01:58:39;;;;;;;28.10;12.60;;;;;;;-3.48;73.55;98578.67;119996;1151;104564;-73
2021/01/15 02:01:07;;;;;;;28.27;12.47;;;;;;;-3.50;73.60;98575.25;120056;1153;106759;-73
2021/01/15 02:03:34;;;;;;;27.95;11.70;;;;;;;-3.55;74.08;98577.94;119872;1153;104382;-74
2021/01/15 02:06:04;;;;;;;28.95;12.30;;;;;;;-3.59;73.93;98586.70;119985;1151;104449;-74
2021/01/15 02:08:32;;;;;;;29.97;12.13;;;;;;;-3.61;73.39;98594.55;120016;1151;104474;-73
2021/01/15 02:11:15;;;;;;;28.83;12.15;;;;;;;-3.65;73.69;98590.30;119714;1151;104847;-72
2021/01/15 02:14:04;;;;;;;29.52;13.03;;;;;;;-3.70;73.29;98593.91;120174;1151;104454;-73
2021/01/15 02:16:36;;;;;;;30.33;13.47;;;;;;;-3.74;73.56;98588.77;119942;1151;104379;-67
2021/01/15 02:19:13;;;;;;;28.80;13.57;;;;;;;-3.81;73.46;98596.72;119957;1151;104448;-72
2021/01/15 02:22:28;;;;;;;27.40;12.13;;;;;;;-3.87;73.85;98589.09;120000;1151;104385;-72
2021/01/15 02:24:58;;;;;;;29.27;12.80;;;;;;;-3.91;73.90;98596.07;120802;1151;104479;-72
2021/01/15 02:27:49;;;;;;;28.87;12.43;;;;;;;-3.90;73.84;98606.45;120689;1151;104369;-73
2021/01/15 02:30:41;;;;;;;30.53;13.10;;;;;;;-3.93;73.65;98597.84;119877;1151;104448;-74
2021/01/15 02:33:27;;;;;;;28.27;12.43;;;;;;;-3.99;73.25;98600.57;120065;1153;104380;-73
2021/01/15 02:36:00;;;;;;;30.37;12.73;;;;;;;-4.04;73.52;98596.33;119976;1153;104426;-71
2021/01/15 02:38:56;;;;;;;30.17;13.43;;;;;;;-4.07;73.38;98601.58;119861;1153;104351;-72
2021/01/15 02:41:30;;;;;;;30.73;12.30;;;;;;;-4.15;73.87;98608.70;120059;1152;104448;-76
2021/01/15 02:44:16;;;;;;;27.90;12.00;;;;;;;-4.19;73.29;98618.28;119952;1151;104375;-73
2021/01/15 02:46:57;;;;;;;28.63;12.77;;;;;;;-4.25;73.80;98613.20;119973;1152;104348;-74
2021/01/15 02:49:30;;;;;;;25.97;10.93;;;;;;;-4.27;73.58;98620.17;121023;1152;103311;-75
2021/01/15 02:52:04;;;;;;;30.87;13.17;;;;;;;-4.27;73.83;98630.56;119903;1152;106864;-73
2021/01/15 02:54:33;;;;;;;27.83;12.33;;;;;;;-4.29;73.81;98623.70;119812;1151;104822;-73
2021/01/15 02:57:00;;;;;;;29.33;12.20;;;;;;;-4.28;73.65;98628.00;119916;1153;104716;-73
2021/01/15 02:59:27;;;;;;;29.63;11.07;;;;;;;-4.27;73.46;98633.16;120304;1152;104508;-73
2021/01/15 03:02:04;;;;;;;30.37;13.10;;;;;;;-4.27;73.61;98642.70;119927;1151;105022;-74
2021/01/15 03:04:51;;;;;;;27.80;11.97;;;;;;;-4.27;73.38;98642.70;120916;1151;104370;-73
2021/01/15 03:07:23;;;;;;;28.63;11.33;;;;;;;-4.29;73.69;98639.28;121059;1151;104458;-72
2021/01/15 03:09:55;;;;;;;28.03;11.57;;;;;;;-4.32;73.75;98645.40;120053;1151;105036;-72
2021/01/15 03:12:26;;;;;;;31.33;11.70;;;;;;;-4.33;73.26;98641.09;120067;1153;104346;-72
2021/01/15 03:14:57;;;;;;;27.00;11.07;;;;;;;-4.36;73.45;98646.34;119898;1153;104527;-72
2021/01/15 03:17:35;;;;;;;27.80;10.53;;;;;;;-4.40;73.40;98637.73;119938;1153;104461;-73
2021/01/15 03:20:06;;;;;;;26.13;11.17;;;;;;;-4.39;73.75;98636.84;120068;1152;104567;-73
2021/01/15 03:22:34;;;;;;;30.60;11.03;;;;;;;-4.38;73.31;98635.13;120598;1153;104351;-73
2021/01/15 03:25:02;;;;;;;25.70;9.77;;;;;;;-4.36;73.67;98639.39;119960;1151;104365;-72
2021/01/15 03:27:43;;;;;;;29.23;10.70;;;;;;;-4.33;73.70;98651.48;119852;1153;104351;-73
2021/01/15 03:30:15;;;;;;;30.37;11.60;;;;;;;-4.36;73.36;98647.18;120248;1153;104419;-73
2021/01/15 03:32:51;;;;;;;27.03;11.70;;;;;;;-4.39;73.46;98648.99;120096;1154;104506;-73
2021/01/15 03:35:22;;;;;;;26.43;10.97;;;;;;;-4.40;73.51;98655.91;120047;1152;104442;-73
2021/01/15 03:38:10;;;;;;;27.27;11.03;;;;;;;-4.39;73.39;98652.43;119936;1152;104374;-72
2021/01/15 03:40:46;;;;;;;26.23;10.20;;;;;;;-4.38;73.51;98655.89;119978;1151;104385;-71
2021/01/15 03:43:16;;;;;;;26.70;11.53;;;;;;;-4.38;73.24;98653.30;120548;1152;104323;-72
2021/01/15 03:45:47;;;;;;;29.57;12.27;;;;;;;-4.34;73.70;98660.99;119844;1153;104446;-72
2021/01/15 03:48:21;;;;;;;27.33;11.57;;;;;;;-4.32;73.55;98660.98;120068;1152;104956;-72
2021/01/15 03:50:53;;;;;;;24.47;10.87;;;;;;;-4.30;73.39;98656.61;119940;1151;104348;-73
2021/01/15 03:53:21;;;;;;;28.23;11.13;;;;;;;-4.28;73.38;98665.20;119925;1151;104537;-71
2021/01/15 03:55:52;;;;;;;30.60;13.73;;;;;;;-4.27;73.73;98660.88;120683;1151;104373;-72
2021/01/15 03:58:19;;;;;;;29.87;12.77;;;;;;;-4.28;73.63;98657.41;119823;1151;104390;-74
2021/01/15 04:00:48;;;;;;;27.10;11.37;;;;;;;-4.26;73.61;98660.00;119829;1152;104446;-73
2021/01/15 04:03:18;;;;;;;30.37;12.63;;;;;;;-4.26;73.69;98667.78;119938;1151;104354;-71
2021/01/15 04:05:45;;;;;;;30.70;11.30;;;;;;;-4.29;73.78;98660.05;119881;1151;104544;-71
2021/01/15 04:08:12;;;;;;;28.03;11.27;;;;;;;-4.30;73.48;98666.13;120008;1153;104447;-74
2021/01/15 04:10:43;;;;;;;30.83;12.17;;;;;;;-4.32;73.56;98666.17;120030;1152;104455;-73
2021/01/15 04:13:10;;;;;;;29.40;11.83;;;;;;;-4.36;73.59;98665.36;119791;1153;104937;-71
2021/01/15 04:15:37;;;;;;;25.17;11.00;;;;;;;-4.42;73.56;98660.27;119902;1153;104385;-73
2021/01/15 04:18:05;;;;;;;30.23;12.50;;;;;;;-4.47;73.45;98669.04;119936;1152;104505;-73
2021/01/15 04:20:32;;;;;;;26.90;11.67;;;;;;;-4.50;73.64;98663.02;119932;1152;104452;-72
2021/01/15 04:22:59;;;;;;;31.10;13.25;;;;;;;-4.54;73.62;98673.50;120052;1151;104375;-68
2021/01/15 04:25:30;;;;;;;32.20;13.77;;;;;;;-4.55;73.52;98669.19;119899;1151;104379;-73
2021/01/15 04:27:57;;;;;;;29.50;11.97;;;;;;;-4.56;73.52;98670.07;119900;1153;104548;-73
2021/01/15 04:30:27;;;;;;;31.20;13.03;;;;;;;-4.56;73.69;98670.91;120656;1152;104557;-73
2021/01/15 04:32:54;;;;;;;31.07;13.07;;;;;;;-4.54;73.75;98663.95;120248;1149;104369;-71
2021/01/15 04:35:24;;;;;;;31.17;12.50;;;;;;;-4.55;73.94;98661.40;120008;1153;104409;-73
2021/01/15 04:37:51;;;;;;;29.47;12.07;;;;;;;-4.55;73.81;98670.03;119950;1153;104459;-73
2021/01/15 04:40:22;;;;;;;30.43;11.70;;;;;;;-4.58;73.87;98677.03;120116;1151;104391;-74
2021/01/15 04:43:00;;;;;;;28.03;12.07;;;;;;;-4.64;73.46;98671.05;120028;1151;104623;-73
2021/01/15 04:45:28;;;;;;;33.80;13.47;;;;;;;-4.69;73.41;98678.06;120546;1153;104519;-73
2021/01/15 04:48:11;;;;;;;27.73;11.47;;;;;;;-4.70;73.39;98685.89;120439;1151;104450;-73
2021/01/15 04:50:40;;;;;;;28.20;11.60;;;;;;;-4.74;73.53;98686.82;120768;1151;104326;-72
2021/01/15 04:53:14;;;;;;;36.00;13.40;;;;;;;-4.76;73.85;98688.58;121374;1150;102126;-72
2021/01/15 04:55:44;;;;;;;29.27;12.67;;;;;;;-4.77;73.54;98684.27;120777;1152;104595;-72
2021/01/15 04:58:16;;;;;;;32.30;12.93;;;;;;;-4.77;73.53;98679.08;119758;1152;104369;-71
2021/01/15 05:00:53;;;;;;;27.80;11.20;;;;;;;-4.81;73.56;98686.04;121022;1152;104420;-72
2021/01/15 05:03:24;;;;;;;27.17;11.57;;;;;;;-4.84;73.47;98688.69;121214;1151;102628;-72
2021/01/15 05:05:59;;;;;;;30.03;12.77;;;;;;;-4.89;73.29;98693.96;120028;1152;104348;-71
2021/01/15 05:08:29;;;;;;;33.40;14.27;;;;;;;-4.90;73.41;98689.66;119832;1151;104468;-71
2021/01/15 05:10:56;;;;;;;29.47;12.20;;;;;;;-4.92;73.44;98698.36;119774;1151;104425;-72
2021/01/15 05:13:36;;;;;;;29.10;12.13;;;;;;;-4.91;73.67;98694.88;120442;1151;104377;-72
2021/01/15 05:16:03;;;;;;;29.17;12.83;;;;;;;-4.95;73.41;98700.11;119930;1151;106016;-71
2021/01/15 05:18:38;;;;;;;28.17;11.80;;;;;;;-4.98;74.18;98694.97;119978;1151;104375;-72
2021/01/15 05:21:05;;;;;;;29.20;11.80;;;;;;;-5.00;73.47;98701.92;119814;1153;104508;-72
2021/01/15 05:23:32;;;;;;;33.73;13.75;;;;;;;-5.02;73.53;98697.63;121024;1151;104355;-71
2021/01/15 05:25:59;;;;;;;31.17;12.50;;;;;;;-5.05;73.47;98706.32;119866;1152;104487;-71
2021/01/15 05:28:26;;;;;;;31.52;13.30;;;;;;;-5.04;73.51;98709.75;119709;1153;104498;-73
2021/01/15 05:30:59;;;;;;;33.37;13.37;;;;;;;-5.02;73.45;98716.65;119827;1151;104376;-73
2021/01/15 05:33:27;;;;;;;35.47;14.83;;;;;;;-4.99;73.56;98723.52;119905;1152;104442;-72
2021/01/15 05:35:54;;;;;;;34.70;14.03;;;;;;;-4.98;73.72;98713.13;119992;1153;104450;-73
2021/01/15 05:38:23;;;;;;;37.57;16.30;;;;;;;-4.98;73.72;98726.10;120008;1153;104452;-72
2021/01/15 05:40:57;;;;;;;41.43;16.67;;;;;;;-4.97;74.07;98735.60;119922;1154;104790;-72
2021/01/15 05:43:32;;;;;;;34.17;14.60;;;;;;;-4.98;73.68;98735.61;119822;1153;104372;-71
2021/01/15 05:46:20;;;;;;;39.87;16.03;;;;;;;-4.96;73.60;98733.84;119824;1153;104356;-72
2021/01/15 05:48:59;;;;;;;40.77;16.60;;;;;;;-4.96;73.64;98732.12;119824;1152;104474;-70
2021/01/15 05:51:32;;;;;;;40.33;15.33;;;;;;;-4.96;73.70;98746.81;119817;1152;104423;-71
2021/01/15 05:54:01;;;;;;;36.90;15.43;;;;;;;-4.97;73.69;98745.98;119779;1150;104425;-71
2021/01/15 05:56:48;;;;;;;38.40;14.77;;;;;;;-4.98;73.67;98749.45;121988;1151;103221;-71
2021/01/15 05:59:18;;;;;;;40.37;15.37;;;;;;;-4.97;73.76;98755.48;120158;1151;104349;-71
2021/01/15 06:02:08;;;;;;;39.33;16.60;;;;;;;-4.92;74.23;98760.63;120014;1153;104359;-72
2021/01/15 06:04:40;;;;;;;37.33;15.47;;;;;;;-4.89;73.87;98753.63;119967;1153;104451;-72
2021/01/15 06:07:13;;;;;;;41.90;17.00;;;;;;;-4.85;73.53;98759.63;120034;1151;104420;-71
2021/01/15 06:10:03;;;;;;;37.93;17.40;;;;;;;-4.84;73.79;98780.38;120079;1151;104426;-71
2021/01/15 06:12:41;;;;;;;36.17;16.37;;;;;;;-4.82;73.75;98783.80;120080;1151;104368;-72
2021/01/15 06:15:08;;;;;;;36.07;15.03;;;;;;;-4.81;73.72;98782.05;120058;1151;104404;-70
2021/01/15 06:17:45;;;;;;;38.90;16.45;;;;;;;-4.84;73.50;98788.16;120065;1153;104346;-72
2021/01/15 06:20:22;;;;;;;34.47;15.13;;;;;;;-4.83;73.57;98796.78;120063;1152;104455;-71
2021/01/15 06:23:04;;;;;;;40.83;18.80;;;;;;;-4.86;73.42;98795.11;120115;1151;104845;-72
2021/01/15 06:25:33;;;;;;;;;;;;;;;-4.89;73.59;98802.09;120101;1153;104372;-69
2021/01/15 06:28:07;;;;;;;42.90;19.40;;;;;;;-4.91;73.41;98809.88;120043;1153;104412;-71
2021/01/15 06:30:39;;;;;;;34.13;15.93;;;;;;;-4.88;73.62;98815.02;120065;1151;104349;-71
2021/01/15 06:33:17;;;;;;;30.52;14.00;;;;;;;-4.86;73.59;98820.18;120038;1153;104458;-72
2021/01/15 06:35:50;;;;;;;36.40;16.05;;;;;;;-4.83;73.74;98823.61;120084;1152;104385;-74
2021/01/15 06:38:29;;;;;;;35.87;15.90;;;;;;;-4.80;73.81;98828.75;120075;1154;104608;-72
2021/01/15 06:41:00;;;;;;;35.97;16.57;;;;;;;-4.79;73.60;98830.47;120046;1154;104516;-71
2021/01/15 06:43:36;;;;;;;34.30;15.23;;;;;;;-4.80;73.74;98835.66;120062;1152;104450;-72
2021/01/15 06:46:06;;;;;;;41.23;17.90;;;;;;;-4.80;73.67;98841.73;120060;1152;104380;-72
2021/01/15 06:48:39;;;;;;;38.33;16.43;;;;;;;-4.80;73.58;98849.52;120017;1153;104380;-72
2021/01/15 06:51:10;;;;;;;35.40;15.60;;;;;;;-4.79;73.71;98851.23;120094;1151;104537;-71
2021/01/15 06:53:43;;;;;;;45.97;19.73;;;;;;;-4.77;73.53;98853.80;120046;1153;104347;-71
2021/01/15 06:56:20;;;;;;;45.97;19.00;;;;;;;-4.80;73.00;98851.23;120053;1151;104486;-72
2021/01/15 06:58:58;;;;;;;49.13;22.52;;;;;;;-4.82;73.54;98859.05;120030;1151;104417;-72
2021/01/15 07:01:59;;;;;;;45.63;19.53;;;;;;;-4.80;73.47;98866.80;120034;1151;104529;-72
2021/01/15 07:04:47;;;;;;;44.67;17.57;;;;;;;-4.80;73.74;98865.08;120089;1151;104611;-73
2021/01/15 07:07:20;;;;;;;41.70;19.23;;;;;;;-4.77;73.59;98866.77;120057;1151;104383;-72
2021/01/15 07:09:48;;;;;;;34.77;16.63;;;;;;;-4.75;73.74;98874.55;120060;1151;104455;-71
2021/01/15 07:12:20;;;;;;;39.93;17.20;;;;;;;-4.73;73.61;98875.39;120042;1151;104453;-71
2021/01/15 07:14:54;;;;;;;36.37;16.03;;;;;;;-4.74;73.23;98879.70;120072;1151;104454;-71
2021/01/15 07:17:34;;;;;;;40.70;17.80;;;;;;;-4.74;73.40;98881.45;120082;1151;104392;-72
2021/01/15 07:20:39;;;;;;;43.40;18.80;;;;;;;-4.71;73.50;98881.41;120052;1151;104458;-71
2021/01/15 07:23:49;;;;;;;38.93;18.73;;;;;;;-4.73;73.49;98886.61;120068;1151;104352;-72
2021/01/15 07:26:18;;;;;;;31.20;15.13;;;;;;;-4.73;73.17;98888.36;120018;1151;104442;-71
2021/01/15 07:28:47;;;;;;;36.47;16.33;;;;;;;-4.75;73.27;98897.91;120059;1151;104350;-72
2021/01/15 07:31:24;;;;;;;37.43;15.70;;;;;;;-4.79;73.22;98895.34;120033;1151;104553;-71
2021/01/15 07:34:06;;;;;;;38.80;16.60;;;;;;;-4.80;73.32;98906.61;120050;1149;104444;-72
2021/01/15 07:36:40;;;;;;;38.87;15.13;;;;;;;-4.79;73.26;98910.05;120092;1149;104420;-71
2021/01/15 07:39:13;;;;;;;41.10;17.97;;;;;;;-4.79;73.29;98910.92;120006;1151;104494;-71
2021/01/15 07:41:49;;;;;;;40.85;18.15;;;;;;;-4.76;73.46;98914.36;120109;1151;104355;-73
2021/01/15 07:44:22;;;;;;;34.30;16.17;;;;;;;-4.75;73.14;98922.10;120076;1151;104461;-71
2021/01/15 07:46:55;;;;;;;;;;;;;;;-4.77;73.26;98925.61;120047;1151;104451;-71
2021/01/15 07:49:44;;;;;;;32.43;15.20;;;;;;;-4.77;73.12;98930.80;120148;1151;104396;-72
2021/01/15 07:52:15;;;;;;;34.00;14.60;;;;;;;-4.75;73.25;98935.08;120029;1149;104365;-72
2021/01/15 07:54:57;;;;;;;33.13;15.17;;;;;;;-4.75;73.14;98929.05;120074;1151;104453;-71
2021/01/15 07:57:28;;;;;;;36.03;15.20;;;;;;;-4.74;73.07;98936.80;120081;1151;104499;-71
2021/01/15 07:59:58;;;;;;;38.87;18.83;;;;;;;-4.71;73.57;98943.70;120018;1151;104450;-71
2021/01/15 08:02:25;;;;;;;36.40;16.00;;;;;;;-4.69;73.09;98940.20;120078;1151;104346;-72
2021/01/15 08:05:02;;;;;;;39.77;16.47;;;;;;;-4.64;73.00;98946.19;120059;1151;104453;-70
2021/01/15 08:07:37;;;;;;;50.87;23.13;;;;;;;-4.55;73.35;98944.36;120094;1153;104349;-71
2021/01/15 08:10:09;;;;;;;35.97;16.57;;;;;;;-4.51;72.94;98948.64;119998;1152;104506;-71
2021/01/15 08:12:42;;;;;;;40.55;18.35;;;;;;;-4.48;73.28;98953.76;120047;1153;104484;-72
2021/01/15 08:15:32;;;;;;;36.77;17.17;;;;;;;-4.45;72.82;98951.13;120067;1151;104355;-71
2021/01/15 08:18:02;;;;;;;34.07;15.37;;;;;;;-4.43;72.82;98959.75;120044;1153;104448;-71
2021/01/15 08:20:29;;;;;;;32.40;14.70;;;;;;;-4.45;72.59;98961.51;120049;1154;104764;-71
2021/01/15 08:22:56;;;;;;;34.43;16.07;;;;;;;-4.46;73.04;98957.19;120074;1153;104457;-72
2021/01/15 08:25:32;;;;;;;39.25;17.45;;;;;;;-4.42;72.90;98969.27;120013;1151;104397;-71
2021/01/15 08:27:59;;;;;;;34.50;16.30;;;;;;;-4.42;72.74;98973.61;120068;1154;104441;-71
2021/01/15 08:30:30;;;;;;;33.50;16.13;;;;;;;-4.42;73.04;98964.06;120042;1152;104462;-71
2021/01/15 08:32:58;;;;;;;37.73;16.32;;;;;;;-4.44;73.08;98959.78;120075;1151;104448;-71
2021/01/15 08:35:29;;;;;;;38.63;17.83;;;;;;;-4.41;72.73;98972.73;120045;1151;104355;-72
2021/01/15 08:38:03;;;;;;;35.47;18.13;;;;;;;-4.36;72.75;98971.78;120072;1151;104356;-72
2021/01/15 08:40:38;;;;;;;38.35;17.85;;;;;;;-4.32;72.71;98975.21;120015;1151;104380;-71
2021/01/15 08:43:09;;;;;;;35.63;17.50;;;;;;;-4.34;72.67;98971.78;120026;1151;104458;-71
2021/01/15 08:45:38;;;;;;;44.10;17.93;;;;;;;-4.42;72.69;98966.66;120051;1151;104448;-71
2021/01/15 08:48:09;;;;;;;36.00;17.20;;;;;;;-4.51;72.76;98978.03;120057;1151;104454;-73
2021/01/15 08:50:37;;;;;;;37.20;16.80;;;;;;;-4.54;72.77;98974.64;120052;1153;104447;-71
2021/01/15 08:53:12;;;;;;;36.67;17.30;;;;;;;-4.57;72.85;98965.13;120035;1153;104438;-71
2021/01/15 08:55:43;;;;;;;39.25;19.15;;;;;;;-4.57;72.94;98982.46;120061;1153;104435;-70
2021/01/15 08:58:10;;;;;;;37.27;18.70;;;;;;;-4.54;72.85;98979.83;120108;1151;104372;-72
2021/01/15 09:00:36;;;;;;;38.75;19.25;;;;;;;-4.44;73.10;98977.97;120096;1151;104489;-72
2021/01/15 09:03:18;;;;;;;44.83;20.67;;;;;;;-4.32;72.80;98979.53;120083;1149;104378;-72
2021/01/15 09:05:49;;;;;;;40.50;20.13;;;;;;;-4.21;72.88;98993.23;120047;1151;104447;-75
2021/01/15 09:08:21;;;;;;;41.53;19.63;;;;;;;-3.96;72.90;98988.55;120025;1151;104455;-74
2021/01/15 09:10:52;;;;;;;40.87;20.57;;;;;;;-3.62;71.89;98992.34;120120;1151;104436;-75
2021/01/15 09:13:20;;;;;;;40.03;20.83;;;;;;;-3.55;72.09;98993.97;120016;1151;104489;-73
2021/01/15 09:15:53;;;;;;;43.47;22.47;;;;;;;-3.42;72.75;98998.97;120064;1151;104824;-72
2021/01/15 09:18:25;;;;;;;45.25;22.60;;;;;;;-3.16;72.45;98998.52;120078;1151;104445;-72
2021/01/15 09:20:52;;;;;;;37.57;19.07;;;;;;;-2.86;73.20;98993.63;120057;1151;104361;-72
2021/01/15 09:23:20;;;;;;;37.43;17.43;;;;;;;-2.37;73.25;98999.58;120008;1149;104351;-72
2021/01/15 09:25:47;;;;;;;34.87;17.73;;;;;;;-1.80;72.58;98998.31;120035;1151;104444;-71
2021/01/15 09:28:14;;;;;;;32.57;17.50;;;;;;;-1.26;72.59;98997.92;120048;1151;104384;-73
2021/01/15 09:30:41;;;;;;;37.83;19.33;;;;;;;-0.85;71.94;98988.14;120058;1151;104465;-72
2021/01/15 09:33:12;;;;;;;37.80;19.53;;;;;;;-0.41;72.56;98993.00;120023;1151;104455;-72
2021/01/15 09:35:39;;;;;;;39.08;18.37;;;;;;;-0.11;72.25;98989.53;120008;1151;104398;-73
2021/01/15 09:38:10;;;;;;;37.30;18.90;;;;;;;0.06;72.14;98991.62;120042;1151;104503;-72
2021/01/15 09:40:37;;;;;;;37.25;17.10;;;;;;;0.26;72.32;98996.23;120047;1151;104355;-73
2021/01/15 09:43:04;;;;;;;35.63;17.00;;;;;;;0.35;72.22;98993.33;120031;1151;104498;-72
2021/01/15 09:45:31;;;;;;;37.17;17.13;;;;;;;0.37;72.06;98994.13;120032;1151;105587;-73
2021/01/15 09:47:58;;;;;;;32.75;16.15;;;;;;;0.40;72.58;98999.27;120041;1151;104478;-72
2021/01/15 09:50:25;;;;;;;31.70;14.75;;;;;;;0.33;71.92;98997.75;120115;1151;104476;-73
2021/01/15 09:52:52;;;;;;;31.97;14.93;;;;;;;0.24;72.30;99001.49;119955;1151;104462;-74
2021/01/15 09:55:19;;;;;;;33.13;15.80;;;;;;;0.18;72.22;99000.84;120002;1151;104450;-70
2021/01/15 09:57:50;;;;;;;33.08;15.60;;;;;;;0.16;72.27;98998.29;120015;1151;104389;-73
2021/01/15 10:00:21;;;;;;;34.07;16.13;;;;;;;0.15;72.55;99004.42;119968;1151;104401;-73
2021/01/15 10:02:48;;;;;;;30.40;14.73;;;;;;;0.17;72.32;98988.66;119750;1151;104474;-73
2021/01/15 10:05:18;;;;;;;32.80;15.30;;;;;;;0.07;72.08;98996.79;119745;1151;104383;-74
2021/01/15 10:07:46;;;;;;;35.13;16.27;;;;;;;0.05;72.18;99001.21;119706;1151;104430;-74
2021/01/15 10:10:13;;;;;;;33.73;16.13;;;;;;;0.03;72.32;99005.63;120006;1151;104428;-74
2021/01/15 10:12:47;;;;;;;33.30;14.93;;;;;;;-0.03;71.98;99004.07;120012;1151;104509;-74
2021/01/15 10:15:14;;;;;;;34.83;15.37;;;;;;;-0.04;72.60;99001.52;119935;1151;104525;-75
2021/01/15 10:17:47;;;;;;;31.67;14.53;;;;;;;-0.07;71.89;98994.60;119958;1151;104368;-75
2021/01/15 10:20:16;;;;;;;36.27;16.43;;;;;;;-0.28;71.70;98995.27;120025;1151;104381;-75
2021/01/15 10:22:46;;;;;;;35.00;16.77;;;;;;;-0.42;71.92;98999.12;119944;1151;104450;-74
2021/01/15 10:25:14;;;;;;;39.30;18.10;;;;;;;-0.44;72.06;99002.70;119995;1151;104354;-74
2021/01/15 10:27:42;;;;;;;37.43;17.13;;;;;;;-0.56;71.76;99001.27;119986;1151;104427;-74
2021/01/15 10:30:09;;;;;;;34.60;17.65;;;;;;;-0.72;71.68;99001.72;120011;1151;104351;-74
2021/01/15 10:32:36;;;;;;;40.77;17.20;;;;;;;-0.72;71.64;99004.33;119982;1151;104423;-75
2021/01/15 10:35:09;;;;;;;36.73;18.47;;;;;;;-0.77;71.48;99000.98;120029;1151;104453;-78
2021/01/15 10:37:41;;;;;;;39.00;18.63;;;;;;;-0.77;72.22;99000.98;120029;1151;104381;-75
2021/01/15 10:40:11;;;;;;;37.20;19.23;;;;;;;-0.79;71.59;99003.62;119901;1151;104914;-75
2021/01/15 10:42:46;;;;;;;38.07;18.07;;;;;;;-0.81;71.97;98994.97;119976;1151;104401;-75
2021/01/15 10:45:14;;;;;;;36.80;17.17;;;;;;;-0.86;71.64;98990.78;119992;1151;104399;-75
2021/01/15 10:47:43;;;;;;;39.77;18.10;;;;;;;-1.03;70.98;98988.63;119992;1151;104455;-74
2021/01/15 10:50:14;;;;;;;36.87;16.53;;;;;;;-1.15;70.96;98989.81;120010;1149;104507;-74
2021/01/15 10:52:42;;;;;;;35.27;16.37;;;;;;;-1.14;71.91;98984.53;119932;1151;104460;-76
2021/01/15 10:55:13;;;;;;;38.05;17.32;;;;;;;-1.02;71.70;98982.50;119929;1151;104487;-73
2021/01/15 10:57:39;;;;;;;41.40;18.60;;;;;;;-1.06;70.90;98982.59;119995;1154;104472;-79
2021/01/15 11:00:14;;;;;;;43.23;19.10;;;;;;;-1.03;71.52;98978.18;120040;1151;104353;-75
2021/01/15 11:02:41;;;;;;;41.10;19.87;;;;;;;-0.98;71.63;98979.76;119982;1151;104523;-75
2021/01/15 11:05:12;;;;;;;42.10;19.25;;;;;;;-0.89;71.06;98986.51;119938;1151;104458;-75
2021/01/15 11:07:41;;;;;;;35.95;15.85;;;;;;;-0.82;71.24;98985.45;119960;1151;105022;-77
2021/01/15 11:10:14;;;;;;;39.80;18.63;;;;;;;-0.89;70.75;98973.45;120038;1151;104454;-76
2021/01/15 11:12:41;;;;;;;34.40;16.35;;;;;;;-1.01;71.58;98985.06;119976;1151;104508;-74
2021/01/15 11:15:10;;;;;;;32.50;15.07;;;;;;;-1.02;71.69;98985.98;120038;1151;104821;-75
2021/01/15 11:17:42;;;;;;;33.43;15.17;;;;;;;-0.97;70.85;98975.41;119992;1153;104420;-75
2021/01/15 11:20:09;;;;;;;33.90;14.50;;;;;;;-0.95;71.65;98974.45;119982;1151;104854;-75
2021/01/15 11:22:37;;;;;;;31.70;13.83;;;;;;;-0.99;71.25;98970.21;120007;1151;104353;-74
2021/01/15 11:25:05;;;;;;;34.23;14.47;;;;;;;-1.03;70.87;98968.61;119973;1152;104852;-74